Latest Coastal Weather Observations for Broome

IDW60701

Issued at 6:25 am WST Thursday 23 October 2014 (issued every 10 minutes, with the page automatically refreshed every 10 minutes)

About coastal observations | Map of coastal stations | Coastal observations for WA | Marine services | Other Formats
Station Details ID: 003003 Name: BROOME AIRPORT Lat: -17.95 Lon: 122.24 Height: 7.42 m
Data from the previous 72 hours. | See also: Recent months at Broome
Date/Time
WST
Temp

°C
Wind Pressure Rain
since 9am
mm
Weather Cloud Vis
km
Sea
Height
m
Swell
Dir
 
Speed
knots
Gust
knots
hPa Trend Height
m
Period
s
Dir
23/06:00am 24.3 NNE 6 8 1011.4 R 0.0 Haze Mostly clear 25 - - - -
23/05:30am 23.5 NE 6 9 1011.4 - 0.0 - - 10 - - - -
23/05:00am 23.5 CALM 0 0 1010.7 - 0.0 - - 10 - - - -
23/04:30am 24.2 N 2 5 1010.4 - 0.0 - - 10 - - - -
23/04:00am 24.8 NNE 5 6 1010.2 - 0.0 - - 10 - - - -
23/03:30am 26.1 NNW 7 9 1010.0 - 0.0 - - 10 - - - -
23/03:00am 26.1 NW 7 9 1009.7 - 0.0 - - 10 - - - -
23/02:30am 26.3 NW 8 11 1010.2 - 0.0 - - 10 - - - -
23/02:00am 26.4 NW 8 12 1010.4 - 0.0 - Partly cloudy 10 - - - -
23/01:30am 26.5 WNW 9 14 1010.6 - 0.0 - Partly cloudy 10 - - - -
23/01:00am 26.5 NW 9 13 1010.8 - 0.0 - Partly cloudy 10 - - - -
23/12:30am 26.6 NW 8 11 1011.1 - 0.0 - Partly cloudy 10 - - - -
23/12:00am 26.5 NW 7 10 1011.2 - 0.0 - - 10 - - - -
 
Date/Time
WST
Temp

°C
Wind Pressure Rain
since 9am
mm
Weather Cloud Vis
km
Sea
Height
m
Swell
Dir
 
Speed
knots
Gust
knots
hPa Trend Height
m
Period
s
Dir
22/11:30pm 26.7 NW 7 10 1011.6 - 0.0 - - 10 - - - -
22/11:00pm 26.8 NW 9 13 1011.6 - 0.0 - - 10 - - - -
22/10:30pm 26.8 NW 10 16 1011.7 - 0.0 - - 10 - - - -
22/10:00pm 26.8 NW 9 13 1011.9 - 0.0 - - 10 - - - -
22/09:30pm 26.9 NW 10 15 1012.1 - 0.0 - - 10 - - - -
22/09:00pm 26.9 NW 11 16 1011.9 - 0.0 - - 10 - - - -
22/08:30pm 27.1 NNW 10 15 1012.1 - 0.0 - - 10 - - - -
22/08:00pm 27.1 NW 12 17 1011.8 - 0.0 - - 10 - - - -
22/07:30pm 27.2 NNW 11 17 1011.7 - 0.0 - - 10 - - - -
22/07:00pm 27.3 NNW 12 18 1011.5 - 0.0 - - 10 - - - -
22/06:30pm 27.3 NNW 11 18 1010.9 - 0.0 - - 10 - - - -
22/06:00pm 27.5 NNW 10 15 1010.4 - 0.0 - - 10 - - - -
22/05:30pm 28.0 NW 13 18 1010.0 - 0.0 - - 10 - - - -
22/05:00pm 28.5 NW 14 19 1010.0 - 0.0 - - 10 - - - -
22/04:30pm 29.0 NW 16 21 1009.8 - 0.0 - - 10 - - - -
22/04:00pm 29.1 NW 15 21 1009.6 - 0.0 - - 10 - - - -
22/03:30pm 30.0 NW 15 21 1009.5 - 0.0 - - 10 - - - -
22/03:00pm 29.9 NW 15 23 1009.5 R 0.0 Haze Mostly clear 30 - - - -
22/02:30pm 29.7 NW 15 19 1009.7 - 0.0 - - 10 - - - -
22/02:00pm 30.4 NW 15 21 1009.8 - 0.0 - - 10 - - - -
22/01:30pm 31.0 NW 13 20 1010.1 - 0.0 - - 10 - - - -
22/01:00pm 31.2 WNW 15 21 1010.4 - 0.0 - - 10 - - - -
22/12:30pm 31.0 NW 16 21 1010.6 - 0.0 - - 10 - - - -
22/12:00pm 30.9 NW 15 21 1010.9 R 0.0 Haze Clear 25 - - - -
22/11:30am 31.3 NW 14 22 1011.5 - 0.0 - - 10 - - - -
22/11:00am 31.4 NW 13 16 1011.8 - 0.0 - - 10 - - - -
22/10:30am 31.4 NW 12 16 1012.1 - 0.0 - - 10 - - - -
22/10:00am 30.3 NW 11 16 1012.5 - 0.0 - - 10 - - - -
22/09:30am 29.9 NW 12 16 1012.6 - 0.0 - - 10 - - - -
22/09:00am 29.7 NNW 11 15 1012.4 F 0.0 Haze Mostly clear 25 - - - -
22/08:30am 29.8 NNW 11 16 1012.4 - 0.0 - - 10 - - - -
22/08:00am 28.5 NNW 11 15 1012.3 - 0.0 - - 10 - - - -
22/07:30am 27.8 NNW 11 17 1012.0 - 0.0 - - 10 - - - -
22/07:00am 26.7 N 8 13 1012.0 - 0.0 - - 10 - - - -
22/06:30am 25.1 N 7 10 1012.0 - 0.0 - - 10 - - - -
22/06:00am 23.7 N 5 8 1011.7 R 0.0 Haze Mostly clear 15 - - - -
22/05:30am 23.3 NNE 7 9 1011.5 - 0.0 - - 10 - - - -
22/05:00am 25.5 NW 4 6 1010.7 - 0.0 - - 10 - - - -
22/04:30am 25.9 WNW 5 6 1010.1 - 0.0 - - 10 - - - -
22/04:00am 26.2 W 7 10 1009.8 - 0.0 - - 10 - - - -
22/03:30am 26.0 WNW 6 8 1009.7 - 0.0 - - 10 - - - -
22/03:00am 26.0 WNW 7 10 1009.8 - 0.0 - - 10 - - - -
22/02:30am 25.9 WNW 6 9 1009.9 - 0.0 - - 10 - - - -
22/02:00am 25.9 WNW 5 8 1010.0 - 0.0 - - 10 - - - -
22/01:30am 25.7 NW 6 7 1010.3 - 0.0 - - 10 - - - -
22/01:00am 25.6 NW 5 7 1010.8 - 0.0 - - 10 - - - -
22/12:30am 25.5 NNW 5 6 1011.1 - 0.0 - - 10 - - - -
22/12:00am 25.7 NNW 4 5 1011.4 - 0.0 - - 10 - - - -
 
Date/Time
WST
Temp

°C
Wind Pressure Rain
since 9am
mm
Weather Cloud Vis
km
Sea
Height
m
Swell
Dir
 
Speed
knots
Gust
knots
hPa Trend Height
m
Period
s
Dir
21/11:30pm 26.0 NW 4 5 1011.8 - 0.0 - - 10 - - - -
21/11:00pm 26.2 WNW 6 8 1012.0 - 0.0 - - 10 - - - -
21/10:30pm 26.4 WNW 7 11 1012.2 - 0.0 - - 10 - - - -
21/10:00pm 26.6 W 7 11 1012.2 - 0.0 - - 10 - - - -
21/09:30pm 26.8 W 10 14 1012.1 - 0.0 - - 10 - - - -
21/09:00pm 26.6 WNW 6 10 1012.3 - 0.0 - - 10 - - - -
21/08:30pm 26.8 W 8 12 1012.4 - 0.0 - - 10 - - - -
21/08:00pm 26.9 W 7 11 1012.6 - 0.0 - - 10 - - - -
21/07:30pm 26.9 WNW 6 10 1012.4 - 0.0 - - 10 - - - -
21/07:00pm 27.5 W 7 10 1012.2 - 0.0 - - 10 - - - -
21/06:30pm 27.8 W 7 11 1011.8 - 0.0 - - 10 - - - -
21/06:00pm 27.8 W 9 13 1011.1 - 0.0 - - 10 - - - -
21/05:30pm 28.4 W 10 14 1010.9 - 0.0 - - 10 - - - -
21/05:00pm 29.2 W 11 16 1010.5 - 0.0 - - 10 - - - -
21/04:30pm 29.8 W 12 16 1010.4 - 0.0 - - 10 - - - -
21/04:00pm 30.1 W 12 16 1010.2 - 0.0 - - 10 - - - -
21/03:30pm 30.1 W 13 17 1010.3 - 0.0 - Mostly clear 10 - - - -
21/03:00pm 30.3 W 14 18 1010.3 F 0.0 Haze Mostly clear 25 - - - -
21/02:30pm 30.3 W 13 20 1010.5 - 0.0 - Mostly clear 10 - - - -
21/02:00pm 30.9 W 14 19 1010.9 - 0.0 - Mostly clear 10 - - - -
21/01:30pm 30.2 W 12 17 1011.4 - 0.0 - Mostly clear 10 - - - -
21/01:00pm 30.5 WNW 13 18 1011.9 - 0.0 - - 10 - - - -
21/12:30pm 30.4 WNW 13 17 1012.5 - 0.0 - - 10 - - - -
21/12:00pm 31.8 WNW 11 16 1013.0 R 0.0 Haze Clear 25 - - - -
21/11:30am 31.4 NNW 11 14 1013.8 - 0.0 - - 10 - - - -
21/11:00am 32.1 WNW 9 13 1014.0 - 0.0 - - 10 - - - -
21/10:30am 31.6 W 7 10 1014.3 - 0.0 - - 10 - - - -
21/10:00am 31.4 NW 7 9 1014.7 - 0.0 - - 10 - - - -
21/09:30am 31.4 WNW 4 7 1015.0 - 0.0 - - 10 - - - -
21/09:00am 30.7 WSW 7 10 1014.4 R 0.0 Haze Clear 25 - - - -
21/08:30am 29.6 SSW 11 16 1014.4 - 0.0 - - 10 - - - -
21/08:00am 28.9 S 10 14 1014.2 - 0.0 - - 10 - - - -
21/07:30am 28.5 S 9 13 1014.0 - 0.0 - - 10 - - - -
21/07:00am 27.7 S 7 11 1013.8 - 0.0 - - 10 - - - -
21/06:30am 27.0 SSW 6 9 1013.4 - 0.0 - - 10 - - - -
21/06:00am 26.0 S 6 9 1013.1 F 0.0 Haze Clear 20 - - - -
21/05:30am 25.6 S 6 8 1013.1 - 0.0 - - 10 - - - -
21/05:00am 26.2 SSW 5 6 1013.1 - 0.0 - - 10 - - - -
21/04:30am 26.1 SW 5 7 1012.9 - 0.0 - - 10 - - - -
21/04:00am 26.4 SW 6 8 1012.5 - 0.0 - - 10 - - - -
21/03:30am 26.5 SW 8 12 1012.4 - 0.0 - - 10 - - - -
21/03:00am 26.3 SW 7 9 1012.2 - 0.0 - - 10 - - - -
21/02:30am 25.9 WSW 6 8 1012.3 - 0.0 - - 10 - - - -
21/02:00am 26.0 WSW 5 7 1012.6 - 0.0 - - 10 - - - -
21/01:30am 26.2 SW 6 9 1012.7 - 0.0 - - 10 - - - -
21/01:00am 26.3 WSW 6 8 1012.6 - 0.0 - - 10 - - - -
21/12:30am 26.0 WSW 7 8 1012.6 - 0.0 - - 10 - - - -
21/12:00am 26.2 W 6 7 1012.9 - 0.0 - - 10 - - - -
 
Date/Time
WST
Temp

°C
Wind Pressure Rain
since 9am
mm
Weather Cloud Vis
km
Sea
Height
m
Swell
Dir
 
Speed
knots
Gust
knots
hPa Trend Height
m
Period
s
Dir
20/11:30pm 26.4 SW 7 8 1013.3 - 0.0 - - 10 - - - -
20/11:00pm 26.4 WSW 6 8 1013.6 - 0.0 - - 10 - - - -
20/10:30pm 26.8 WSW 7 9 1013.8 - 0.0 - - 10 - - - -
20/10:00pm 26.7 WSW 6 9 1014.0 - 0.0 - - 10 - - - -
20/09:30pm 27.0 W 9 12 1013.9 - 0.0 - - 10 - - - -
20/09:00pm 27.0 W 9 14 1013.8 - 0.0 - - 10 - - - -
20/08:30pm 27.1 W 9 13 1013.8 - 0.0 - - 10 - - - -
20/08:00pm 27.2 W 9 12 1013.6 - 0.0 - - 10 - - - -
20/07:30pm 27.3 W 9 13 1013.3 - 0.0 - - 10 - - - -
20/07:00pm 27.4 W 10 13 1012.8 - 0.0 - - 10 - - - -
20/06:30pm 27.3 W 10 14 1012.6 - 0.0 - - 10 - - - -
20/06:00pm 27.4 W 9 15 1012.2 - 0.0 - - 10 - - - -
20/05:30pm 27.8 W 11 15 1011.9 - 0.0 - - 10 - - - -
20/05:00pm 28.4 W 13 16 1011.7 - 0.0 - - 10 - - - -
20/04:30pm 28.5 W 13 16 1011.6 - 0.0 - - 10 - - - -
20/04:00pm 29.4 W 12 17 1011.5 - 0.0 - - 10 - - - -
20/03:30pm 29.3 W 13 17 1011.6 - 0.0 - - 10 - - - -
20/03:00pm 29.5 W 13 18 1011.6 F 0.0 Haze Mostly clear 30 - - - -
20/02:30pm 29.7 W 14 19 1011.8 - 0.0 - - 10 - - - -
20/02:00pm 30.1 W 13 18 1012.1 - 0.0 - - 10 - - - -
20/01:30pm 29.4 W 13 17 1012.5 - 0.0 - - 10 - - - -
20/01:00pm 29.8 W 13 17 1013.0 - 0.0 - - 10 - - - -
20/12:30pm 29.6 W 11 16 1013.5 - 0.0 - - 10 - - - -
20/12:00pm 30.0 W 10 15 1014.1 S 0.0 Haze Clear 30 - - - -
20/11:30am 29.6 W 10 14 1014.6 - 0.0 - - 10 - - - -
20/11:00am 30.5 W 10 13 1014.8 - 0.0 - - 10 - - - -
20/10:30am 30.0 W 10 14 1015.1 - 0.0 - - 10 - - - -
20/10:00am 30.0 WSW 10 14 1015.2 - 0.0 - - 10 - - - -
20/09:30am 30.2 W 10 11 1015.6 - 0.0 - - 10 - - - -
20/09:00am 29.0 SW 6 10 1015.9 R 0.0 Haze Clear 30 - - - -
20/08:30am 29.5 WSW 7 10 1015.7 - 0.0 - - 10 - - - -
20/08:00am 28.9 SW 8 11 1015.5 - 0.0 - - 10 - - - -
20/07:30am 28.4 SW 8 10 1015.2 - 0.0 - - 10 - - - -
20/07:00am 27.8 SSW 7 10 1014.7 - 0.0 - - 10 - - - -
20/06:30am 26.3 SSW 5 6 1014.2 - 0.0 - - 10 - - - -

Other Formats:

Comma delimited format used in spreadsheet applications
http://www.bom.gov.au/fwo/IDW60701/IDW60701.94203.axf

JavaScript Object Notation format (JSON) in row-major order
http://www.bom.gov.au/fwo/IDW60701/IDW60701.94203.json